Carson, California
Current Conditions -  °F | °C
As of 9:16 PM on Monday 22 Dec 2014 (Local Time) from KLGB Reporting Station
Moderate Fog Moderate Fog  
Wind Chill: 58°   Ceiling: 100
Heat Index: 58°   Visibility: 0.25mi
Dew Point: 57°   Wind: 0mph
Humidity: 97%   Direction: NA
Pressure: 30"   Gusts: NA
Location:  33.83°N, 118.26°W
Report Text: KLGB 230516Z 00000KT 1/4SM R30/1000V1400FT FG VV001 14/14 A3000 RMK AO2 T01440139
Loading
Personal Weather Stations






























Interactive Weather Map New forecast layout! Learn more

10-Day Weather Forecast

Advertisements
Track Severe Weather on mobile